sensor_id;sensor_type;location;lat;lon;timestamp;temperature;humidity
10873;DHT22;34586;53.616;10.032;2023-03-23T00:01:24;11.40;99.90
10873;DHT22;34586;53.616;10.032;2023-03-23T00:03:53;11.50;99.90
10873;DHT22;34586;53.616;10.032;2023-03-23T00:06:19;11.40;99.90
10873;DHT22;34586;53.616;10.032;2023-03-23T00:08:48;11.40;99.90
10873;DHT22;34586;53.616;10.032;2023-03-23T00:11:20;11.30;99.90
10873;DHT22;34586;53.616;10.032;2023-03-23T00:13:50;11.30;99.90
10873;DHT22;34586;53.616;10.032;2023-03-23T00:16:24;11.30;99.90
10873;DHT22;34586;53.616;10.032;2023-03-23T00:19:02;11.20;99.90
10873;DHT22;34586;53.616;10.032;2023-03-23T00:21:34;11.20;99.90
10873;DHT22;34586;53.616;10.032;2023-03-23T00:24:10;11.10;99.90
10873;DHT22;34586;53.616;10.032;2023-03-23T00:26:38;11.10;99.90
10873;DHT22;34586;53.616;10.032;2023-03-23T00:29:13;11.20;99.90
10873;DHT22;34586;53.616;10.032;2023-03-23T00:31:40;11.40;99.90
10873;DHT22;34586;53.616;10.032;2023-03-23T00:34:06;11.10;99.90
10873;DHT22;34586;53.616;10.032;2023-03-23T00:36:33;11.00;99.90
10873;DHT22;34586;53.616;10.032;2023-03-23T00:39:02;11.20;99.90
10873;DHT22;34586;53.616;10.032;2023-03-23T00:41:28;11.10;99.90
10873;DHT22;34586;53.616;10.032;2023-03-23T00:43:55;11.10;99.90
10873;DHT22;34586;53.616;10.032;2023-03-23T00:46:21;11.20;99.90
10873;DHT22;34586;53.616;10.032;2023-03-23T00:48:48;11.10;99.90
10873;DHT22;34586;53.616;10.032;2023-03-23T00:51:16;11.00;99.90
10873;DHT22;34586;53.616;10.032;2023-03-23T00:53:43;11.00;99.90
10873;DHT22;34586;53.616;10.032;2023-03-23T00:56:08;11.10;99.90
10873;DHT22;34586;53.616;10.032;2023-03-23T00:58:34;11.00;99.90
10873;DHT22;34586;53.616;10.032;2023-03-23T01:01:00;11.00;99.90
10873;DHT22;34586;53.616;10.032;2023-03-23T01:03:26;11.00;99.90
10873;DHT22;34586;53.616;10.032;2023-03-23T01:05:54;11.00;99.90
10873;DHT22;34586;53.616;10.032;2023-03-23T01:08:21;11.10;99.90
10873;DHT22;34586;53.616;10.032;2023-03-23T01:10:48;11.10;99.90
10873;DHT22;34586;53.616;10.032;2023-03-23T01:13:14;11.00;99.90
10873;DHT22;34586;53.616;10.032;2023-03-23T01:15:41;11.20;99.90
10873;DHT22;34586;53.616;10.032;2023-03-23T01:18:08;11.10;99.90
10873;DHT22;34586;53.616;10.032;2023-03-23T01:20:35;11.00;99.90
10873;DHT22;34586;53.616;10.032;2023-03-23T01:23:01;11.00;99.90
10873;DHT22;34586;53.616;10.032;2023-03-23T01:25:28;11.00;99.90
10873;DHT22;34586;53.616;10.032;2023-03-23T01:27:55;11.00;99.90
10873;DHT22;34586;53.616;10.032;2023-03-23T01:30:21;11.00;99.90
10873;DHT22;34586;53.616;10.032;2023-03-23T01:32:47;11.00;99.90
10873;DHT22;34586;53.616;10.032;2023-03-23T01:35:12;11.20;99.90
10873;DHT22;34586;53.616;10.032;2023-03-23T01:37:39;10.90;99.90
10873;DHT22;34586;53.616;10.032;2023-03-23T01:40:05;11.00;99.90
10873;DHT22;34586;53.616;10.032;2023-03-23T01:42:33;11.00;99.90
10873;DHT22;34586;53.616;10.032;2023-03-23T01:47:48;11.00;99.90
10873;DHT22;34586;53.616;10.032;2023-03-23T01:50:17;11.00;99.90
10873;DHT22;34586;53.616;10.032;2023-03-23T01:52:43;10.90;99.90
10873;DHT22;34586;53.616;10.032;2023-03-23T01:55:09;11.00;99.90
10873;DHT22;34586;53.616;10.032;2023-03-23T01:57:35;11.00;99.90
10873;DHT22;34586;53.616;10.032;2023-03-23T02:00:06;11.00;99.90
10873;DHT22;34586;53.616;10.032;2023-03-23T02:02:36;11.00;99.90
10873;DHT22;34586;53.616;10.032;2023-03-23T02:05:08;11.00;99.90
10873;DHT22;34586;53.616;10.032;2023-03-23T02:07:34;10.90;99.90
10873;DHT22;34586;53.616;10.032;2023-03-23T02:10:00;11.10;99.90
10873;DHT22;34586;53.616;10.032;2023-03-23T02:12:26;11.00;99.90
10873;DHT22;34586;53.616;10.032;2023-03-23T02:14:52;11.10;99.90
10873;DHT22;34586;53.616;10.032;2023-03-23T02:17:45;11.00;99.90
10873;DHT22;34586;53.616;10.032;2023-03-23T02:29:08;11.10;99.90
10873;DHT22;34586;53.616;10.032;2023-03-23T02:31:44;11.00;99.90
10873;DHT22;34586;53.616;10.032;2023-03-23T02:34:30;11.00;99.90
10873;DHT22;34586;53.616;10.032;2023-03-23T02:37:08;11.00;99.90
10873;DHT22;34586;53.616;10.032;2023-03-23T02:39:47;11.00;99.90
10873;DHT22;34586;53.616;10.032;2023-03-23T02:42:18;11.00;99.90
10873;DHT22;34586;53.616;10.032;2023-03-23T02:44:46;11.10;99.90
10873;DHT22;34586;53.616;10.032;2023-03-23T02:47:17;11.00;99.90
10873;DHT22;34586;53.616;10.032;2023-03-23T02:49:47;11.10;99.90
10873;DHT22;34586;53.616;10.032;2023-03-23T02:52:18;11.10;99.90
10873;DHT22;34586;53.616;10.032;2023-03-23T02:54:47;11.10;99.90
10873;DHT22;34586;53.616;10.032;2023-03-23T02:57:13;11.10;99.90
10873;DHT22;34586;53.616;10.032;2023-03-23T02:59:39;11.10;99.90
10873;DHT22;34586;53.616;10.032;2023-03-23T03:02:09;11.00;99.90
10873;DHT22;34586;53.616;10.032;2023-03-23T03:04:38;11.20;99.90
10873;DHT22;34586;53.616;10.032;2023-03-23T03:07:18;11.10;99.90
10873;DHT22;34586;53.616;10.032;2023-03-23T03:10:02;11.10;99.90
10873;DHT22;34586;53.616;10.032;2023-03-23T03:12:41;11.10;99.90
10873;DHT22;34586;53.616;10.032;2023-03-23T03:15:23;11.20;99.90
10873;DHT22;34586;53.616;10.032;2023-03-23T03:18:57;11.20;99.90
10873;DHT22;34586;53.616;10.032;2023-03-23T03:20:55;11.20;99.90
10873;DHT22;34586;53.616;10.032;2023-03-23T03:23:22;11.10;99.90
10873;DHT22;34586;53.616;10.032;2023-03-23T03:25:50;11.10;99.90
10873;DHT22;34586;53.616;10.032;2023-03-23T03:28:18;11.10;99.90
10873;DHT22;34586;53.616;10.032;2023-03-23T03:30:49;11.20;99.90
10873;DHT22;34586;53.616;10.032;2023-03-23T03:33:17;11.20;99.90
10873;DHT22;34586;53.616;10.032;2023-03-23T03:35:43;11.10;99.90
10873;DHT22;34586;53.616;10.032;2023-03-23T03:38:11;11.10;99.90
10873;DHT22;34586;53.616;10.032;2023-03-23T03:40:37;11.10;99.90
10873;DHT22;34586;53.616;10.032;2023-03-23T03:43:04;11.10;99.90
10873;DHT22;34586;53.616;10.032;2023-03-23T03:45:33;11.10;99.90
10873;DHT22;34586;53.616;10.032;2023-03-23T03:47:59;11.10;99.90
10873;DHT22;34586;53.616;10.032;2023-03-23T03:50:25;11.10;99.90
10873;DHT22;34586;53.616;10.032;2023-03-23T03:52:51;11.10;99.90
10873;DHT22;34586;53.616;10.032;2023-03-23T03:55:17;11.10;99.90
10873;DHT22;34586;53.616;10.032;2023-03-23T03:57:43;11.10;99.90
10873;DHT22;34586;53.616;10.032;2023-03-23T04:00:10;11.10;99.90
10873;DHT22;34586;53.616;10.032;2023-03-23T04:02:45;11.20;99.90
10873;DHT22;34586;53.616;10.032;2023-03-23T04:05:16;11.20;99.90
10873;DHT22;34586;53.616;10.032;2023-03-23T04:07:42;11.20;99.90
10873;DHT22;34586;53.616;10.032;2023-03-23T04:10:10;11.30;99.90
10873;DHT22;34586;53.616;10.032;2023-03-23T04:12:37;11.20;99.90
10873;DHT22;34586;53.616;10.032;2023-03-23T04:15:03;11.30;99.90
10873;DHT22;34586;53.616;10.032;2023-03-23T04:17:29;11.20;99.90
10873;DHT22;34586;53.616;10.032;2023-03-23T04:19:55;11.30;99.90
10873;DHT22;34586;53.616;10.032;2023-03-23T04:22:25;11.30;99.90
10873;DHT22;34586;53.616;10.032;2023-03-23T04:25:04;11.30;99.90
10873;DHT22;34586;53.616;10.032;2023-03-23T04:27:32;11.30;99.90
10873;DHT22;34586;53.616;10.032;2023-03-23T04:29:58;11.40;99.90
10873;DHT22;34586;53.616;10.032;2023-03-23T04:32:25;11.30;99.90
10873;DHT22;34586;53.616;10.032;2023-03-23T04:34:55;11.30;99.90
10873;DHT22;34586;53.616;10.032;2023-03-23T04:37:22;11.30;99.90
10873;DHT22;34586;53.616;10.032;2023-03-23T04:39:51;11.30;99.90
10873;DHT22;34586;53.616;10.032;2023-03-23T04:42:28;11.40;99.90
10873;DHT22;34586;53.616;10.032;2023-03-23T04:44:55;11.30;99.90
10873;DHT22;34586;53.616;10.032;2023-03-23T04:47:21;11.30;99.90
10873;DHT22;34586;53.616;10.032;2023-03-23T04:49:47;11.30;99.90
10873;DHT22;34586;53.616;10.032;2023-03-23T04:52:12;11.20;99.90
10873;DHT22;34586;53.616;10.032;2023-03-23T04:54:39;11.20;99.90
10873;DHT22;34586;53.616;10.032;2023-03-23T04:57:05;11.20;99.90
10873;DHT22;34586;53.616;10.032;2023-03-23T04:59:30;11.20;99.90
10873;DHT22;34586;53.616;10.032;2023-03-23T05:01:56;11.20;99.90
10873;DHT22;34586;53.616;10.032;2023-03-23T05:04:22;11.20;99.90
10873;DHT22;34586;53.616;10.032;2023-03-23T05:06:53;11.10;99.90
10873;DHT22;34586;53.616;10.032;2023-03-23T05:09:19;11.10;99.90
10873;DHT22;34586;53.616;10.032;2023-03-23T05:11:45;11.20;99.90
10873;DHT22;34586;53.616;10.032;2023-03-23T05:14:11;11.20;99.90
10873;DHT22;34586;53.616;10.032;2023-03-23T05:16:37;11.30;99.90
10873;DHT22;34586;53.616;10.032;2023-03-23T05:19:04;11.30;99.90
10873;DHT22;34586;53.616;10.032;2023-03-23T05:21:30;11.30;99.90
10873;DHT22;34586;53.616;10.032;2023-03-23T05:23:56;11.30;99.90
10873;DHT22;34586;53.616;10.032;2023-03-23T05:26:22;11.30;99.90
10873;DHT22;34586;53.616;10.032;2023-03-23T05:28:50;11.30;99.90
10873;DHT22;34586;53.616;10.032;2023-03-23T05:31:18;11.40;99.90
10873;DHT22;34586;53.616;10.032;2023-03-23T05:33:44;11.50;99.90
10873;DHT22;34586;53.616;10.032;2023-03-23T05:36:11;11.50;99.90
10873;DHT22;34586;53.616;10.032;2023-03-23T05:38:39;11.50;99.90
10873;DHT22;34586;53.616;10.032;2023-03-23T05:41:07;11.50;99.90
10873;DHT22;34586;53.616;10.032;2023-03-23T05:43:33;11.50;99.90
10873;DHT22;34586;53.616;10.032;2023-03-23T05:45:59;11.50;99.90
10873;DHT22;34586;53.616;10.032;2023-03-23T05:48:25;11.50;99.90
10873;DHT22;34586;53.616;10.032;2023-03-23T05:50:51;11.40;99.90
10873;DHT22;34586;53.616;10.032;2023-03-23T05:53:17;11.40;99.90
10873;DHT22;34586;53.616;10.032;2023-03-23T05:55:43;11.40;99.90
10873;DHT22;34586;53.616;10.032;2023-03-23T05:58:08;11.40;99.90
10873;DHT22;34586;53.616;10.032;2023-03-23T06:00:34;11.30;99.90
10873;DHT22;34586;53.616;10.032;2023-03-23T06:03:00;11.30;99.90
10873;DHT22;34586;53.616;10.032;2023-03-23T06:05:26;11.30;99.90
10873;DHT22;34586;53.616;10.032;2023-03-23T06:07:52;11.20;99.90
10873;DHT22;34586;53.616;10.032;2023-03-23T06:10:19;11.10;99.90
10873;DHT22;34586;53.616;10.032;2023-03-23T06:12:44;11.10;99.90
10873;DHT22;34586;53.616;10.032;2023-03-23T06:15:11;11.20;99.90
10873;DHT22;34586;53.616;10.032;2023-03-23T06:17:37;11.20;99.90
10873;DHT22;34586;53.616;10.032;2023-03-23T06:20:04;11.10;99.90
10873;DHT22;34586;53.616;10.032;2023-03-23T06:22:34;11.20;99.90
10873;DHT22;34586;53.616;10.032;2023-03-23T06:25:00;11.20;99.90
10873;DHT22;34586;53.616;10.032;2023-03-23T06:27:25;11.20;99.90
10873;DHT22;34586;53.616;10.032;2023-03-23T06:29:51;11.20;99.90
10873;DHT22;34586;53.616;10.032;2023-03-23T06:32:17;11.10;99.90
10873;DHT22;34586;53.616;10.032;2023-03-23T06:34:43;11.20;99.90
10873;DHT22;34586;53.616;10.032;2023-03-23T06:37:10;11.20;99.90
10873;DHT22;34586;53.616;10.032;2023-03-23T06:39:37;11.20;99.90
10873;DHT22;34586;53.616;10.032;2023-03-23T06:42:04;11.20;99.90
10873;DHT22;34586;53.616;10.032;2023-03-23T06:44:30;11.30;99.90
10873;DHT22;34586;53.616;10.032;2023-03-23T06:46:59;11.40;99.90
10873;DHT22;34586;53.616;10.032;2023-03-23T06:49:25;11.60;99.90
10873;DHT22;34586;53.616;10.032;2023-03-23T06:51:50;11.70;99.90
10873;DHT22;34586;53.616;10.032;2023-03-23T06:54:16;11.70;99.90
10873;DHT22;34586;53.616;10.032;2023-03-23T06:56:41;11.70;99.90
10873;DHT22;34586;53.616;10.032;2023-03-23T06:59:07;11.80;99.90
10873;DHT22;34586;53.616;10.032;2023-03-23T07:01:33;11.80;99.90
10873;DHT22;34586;53.616;10.032;2023-03-23T07:03:59;11.90;99.90
10873;DHT22;34586;53.616;10.032;2023-03-23T07:06:25;11.90;99.90
10873;DHT22;34586;53.616;10.032;2023-03-23T07:08:51;12.00;99.90
10873;DHT22;34586;53.616;10.032;2023-03-23T07:11:17;12.10;99.90
10873;DHT22;34586;53.616;10.032;2023-03-23T07:13:43;12.10;99.90
10873;DHT22;34586;53.616;10.032;2023-03-23T07:16:09;12.10;99.90
10873;DHT22;34586;53.616;10.032;2023-03-23T07:18:36;12.00;99.90
10873;DHT22;34586;53.616;10.032;2023-03-23T07:21:02;12.00;99.90
10873;DHT22;34586;53.616;10.032;2023-03-23T07:23:29;12.00;99.90
10873;DHT22;34586;53.616;10.032;2023-03-23T07:25:55;12.00;99.90
10873;DHT22;34586;53.616;10.032;2023-03-23T07:28:22;12.10;99.90
10873;DHT22;34586;53.616;10.032;2023-03-23T07:30:48;12.10;99.90
10873;DHT22;34586;53.616;10.032;2023-03-23T07:33:13;12.10;99.90
10873;DHT22;34586;53.616;10.032;2023-03-23T07:35:39;12.30;99.90
10873;DHT22;34586;53.616;10.032;2023-03-23T07:38:05;12.40;99.90
10873;DHT22;34586;53.616;10.032;2023-03-23T07:40:32;12.70;99.90
10873;DHT22;34586;53.616;10.032;2023-03-23T07:43:02;12.60;99.90
10873;DHT22;34586;53.616;10.032;2023-03-23T07:45:28;12.60;99.90
10873;DHT22;34586;53.616;10.032;2023-03-23T07:47:53;12.70;99.90
10873;DHT22;34586;53.616;10.032;2023-03-23T07:50:19;12.80;99.90
10873;DHT22;34586;53.616;10.032;2023-03-23T07:52:53;12.80;99.90
10873;DHT22;34586;53.616;10.032;2023-03-23T07:55:20;12.70;99.90
10873;DHT22;34586;53.616;10.032;2023-03-23T07:57:47;12.60;99.90
10873;DHT22;34586;53.616;10.032;2023-03-23T08:00:15;12.40;99.90
10873;DHT22;34586;53.616;10.032;2023-03-23T08:02:48;12.20;99.90
10873;DHT22;34586;53.616;10.032;2023-03-23T08:05:16;12.00;99.90
10873;DHT22;34586;53.616;10.032;2023-03-23T08:07:42;11.80;99.90
10873;DHT22;34586;53.616;10.032;2023-03-23T08:10:09;11.80;99.90
10873;DHT22;34586;53.616;10.032;2023-03-23T08:12:39;11.80;99.90
10873;DHT22;34586;53.616;10.032;2023-03-23T08:15:06;11.80;99.90
10873;DHT22;34586;53.616;10.032;2023-03-23T08:17:33;11.60;99.90
10873;DHT22;34586;53.616;10.032;2023-03-23T08:20:00;11.50;99.90
10873;DHT22;34586;53.616;10.032;2023-03-23T08:22:26;11.50;99.90
10873;DHT22;34586;53.616;10.032;2023-03-23T08:24:54;11.40;99.90
10873;DHT22;34586;53.616;10.032;2023-03-23T08:27:20;11.30;99.90
10873;DHT22;34586;53.616;10.032;2023-03-23T08:29:45;11.20;99.90
10873;DHT22;34586;53.616;10.032;2023-03-23T08:32:12;10.90;99.90
10873;DHT22;34586;53.616;10.032;2023-03-23T08:34:38;10.80;99.90
10873;DHT22;34586;53.616;10.032;2023-03-23T08:37:04;10.70;99.90
10873;DHT22;34586;53.616;10.032;2023-03-23T08:39:30;10.70;99.90
10873;DHT22;34586;53.616;10.032;2023-03-23T08:41:56;10.70;99.90
10873;DHT22;34586;53.616;10.032;2023-03-23T08:44:22;10.70;99.90
10873;DHT22;34586;53.616;10.032;2023-03-23T08:46:47;10.40;99.90
10873;DHT22;34586;53.616;10.032;2023-03-23T08:49:14;10.70;99.90
10873;DHT22;34586;53.616;10.032;2023-03-23T08:51:40;10.70;99.90
10873;DHT22;34586;53.616;10.032;2023-03-23T08:54:07;10.90;99.90
10873;DHT22;34586;53.616;10.032;2023-03-23T08:56:33;11.00;99.90
10873;DHT22;34586;53.616;10.032;2023-03-23T08:58:58;11.10;99.90
10873;DHT22;34586;53.616;10.032;2023-03-23T09:01:24;11.40;99.90
10873;DHT22;34586;53.616;10.032;2023-03-23T09:03:50;11.40;99.90
10873;DHT22;34586;53.616;10.032;2023-03-23T09:06:16;11.30;99.90
10873;DHT22;34586;53.616;10.032;2023-03-23T09:08:41;11.40;99.90
10873;DHT22;34586;53.616;10.032;2023-03-23T09:11:08;11.60;99.90
10873;DHT22;34586;53.616;10.032;2023-03-23T09:13:36;11.60;99.90
10873;DHT22;34586;53.616;10.032;2023-03-23T09:16:02;11.60;99.90
10873;DHT22;34586;53.616;10.032;2023-03-23T09:18:28;11.60;99.90
10873;DHT22;34586;53.616;10.032;2023-03-23T09:20:54;11.70;99.90
10873;DHT22;34586;53.616;10.032;2023-03-23T09:23:20;11.60;99.90
10873;DHT22;34586;53.616;10.032;2023-03-23T09:25:46;11.50;99.90
10873;DHT22;34586;53.616;10.032;2023-03-23T09:28:12;11.60;99.90
10873;DHT22;34586;53.616;10.032;2023-03-23T09:30:39;11.60;99.90
10873;DHT22;34586;53.616;10.032;2023-03-23T09:33:06;11.60;99.90
10873;DHT22;34586;53.616;10.032;2023-03-23T09:35:34;11.70;99.90
10873;DHT22;34586;53.616;10.032;2023-03-23T09:38:02;11.70;99.90
10873;DHT22;34586;53.616;10.032;2023-03-23T09:43:26;11.80;99.90
10873;DHT22;34586;53.616;10.032;2023-03-23T09:48:34;11.90;99.90
10873;DHT22;34586;53.616;10.032;2023-03-23T09:51:19;12.00;99.90
10873;DHT22;34586;53.616;10.032;2023-03-23T09:53:54;12.00;99.90
10873;DHT22;34586;53.616;10.032;2023-03-23T09:56:21;11.90;99.90
10873;DHT22;34586;53.616;10.032;2023-03-23T09:59:07;12.00;99.90
10873;DHT22;34586;53.616;10.032;2023-03-23T10:01:39;12.30;99.90
10873;DHT22;34586;53.616;10.032;2023-03-23T10:06:59;12.50;99.90
10873;DHT22;34586;53.616;10.032;2023-03-23T10:09:26;12.60;99.90
10873;DHT22;34586;53.616;10.032;2023-03-23T10:12:22;12.70;99.90
10873;DHT22;34586;53.616;10.032;2023-03-23T10:15:20;12.60;99.90
10873;DHT22;34586;53.616;10.032;2023-03-23T10:18:06;12.60;99.90
10873;DHT22;34586;53.616;10.032;2023-03-23T10:26:41;12.90;99.90
10873;DHT22;34586;53.616;10.032;2023-03-23T10:29:14;13.10;99.90
10873;DHT22;34586;53.616;10.032;2023-03-23T10:39:44;13.80;99.90
10873;DHT22;34586;53.616;10.032;2023-03-23T10:42:11;13.80;99.90
10873;DHT22;34586;53.616;10.032;2023-03-23T10:44:37;13.80;99.90
10873;DHT22;34586;53.616;10.032;2023-03-23T10:47:07;13.60;99.90
10873;DHT22;34586;53.616;10.032;2023-03-23T10:49:38;13.70;99.90
10873;DHT22;34586;53.616;10.032;2023-03-23T10:52:46;13.40;99.90
10873;DHT22;34586;53.616;10.032;2023-03-23T10:57:36;13.20;99.90
10873;DHT22;34586;53.616;10.032;2023-03-23T11:00:15;13.20;99.90
10873;DHT22;34586;53.616;10.032;2023-03-23T11:03:00;13.10;99.90
10873;DHT22;34586;53.616;10.032;2023-03-23T11:05:36;13.00;99.90
10873;DHT22;34586;53.616;10.032;2023-03-23T11:08:03;13.10;99.90
10873;DHT22;34586;53.616;10.032;2023-03-23T11:10:38;13.20;99.90
10873;DHT22;34586;53.616;10.032;2023-03-23T11:13:04;13.30;99.90
10873;DHT22;34586;53.616;10.032;2023-03-23T11:15:37;13.60;99.90
10873;DHT22;34586;53.616;10.032;2023-03-23T11:18:08;13.70;99.90
10873;DHT22;34586;53.616;10.032;2023-03-23T11:20:38;13.80;99.90
10873;DHT22;34586;53.616;10.032;2023-03-23T11:26:01;14.00;99.90
10873;DHT22;34586;53.616;10.032;2023-03-23T11:28:37;14.10;99.90
10873;DHT22;34586;53.616;10.032;2023-03-23T11:31:05;14.30;99.90
10873;DHT22;34586;53.616;10.032;2023-03-23T11:36:19;14.40;99.90
10873;DHT22;34586;53.616;10.032;2023-03-23T11:38:45;14.40;99.90
10873;DHT22;34586;53.616;10.032;2023-03-23T11:41:17;14.40;99.90
10873;DHT22;34586;53.616;10.032;2023-03-23T11:43:46;14.50;99.90
10873;DHT22;34586;53.616;10.032;2023-03-23T11:55:07;14.40;99.90
10873;DHT22;34586;53.616;10.032;2023-03-23T11:57:35;14.50;99.90
10873;DHT22;34586;53.616;10.032;2023-03-23T12:00:01;14.50;99.90
10873;DHT22;34586;53.616;10.032;2023-03-23T12:02:39;14.50;99.90
10873;DHT22;34586;53.616;10.032;2023-03-23T12:19:12;13.70;99.90
10873;DHT22;34586;53.616;10.032;2023-03-23T12:33:18;13.80;99.90
10873;DHT22;34586;53.616;10.032;2023-03-23T12:41:29;13.60;99.90
10873;DHT22;34586;53.616;10.032;2023-03-23T12:44:10;13.60;99.90
10873;DHT22;34586;53.616;10.032;2023-03-23T12:51:49;13.70;99.90
10873;DHT22;34586;53.616;10.032;2023-03-23T12:57:07;13.70;99.90
10873;DHT22;34586;53.616;10.032;2023-03-23T13:02:27;13.80;99.90
10873;DHT22;34586;53.616;10.032;2023-03-23T13:05:04;13.90;99.90
10873;DHT22;34586;53.616;10.032;2023-03-23T13:07:36;14.10;99.90
10873;DHT22;34586;53.616;10.032;2023-03-23T13:10:17;14.60;99.90
10873;DHT22;34586;53.616;10.032;2023-03-23T13:12:46;15.30;99.90
10873;DHT22;34586;53.616;10.032;2023-03-23T13:15:40;15.90;99.90
10873;DHT22;34586;53.616;10.032;2023-03-23T13:18:30;16.10;99.90
10873;DHT22;34586;53.616;10.032;2023-03-23T13:21:21;16.50;99.90
10873;DHT22;34586;53.616;10.032;2023-03-23T13:23:55;16.80;99.90
10873;DHT22;34586;53.616;10.032;2023-03-23T13:26:23;17.10;99.90
10873;DHT22;34586;53.616;10.032;2023-03-23T13:29:22;17.10;99.90
10873;DHT22;34586;53.616;10.032;2023-03-23T13:31:43;17.00;99.90
10873;DHT22;34586;53.616;10.032;2023-03-23T13:36:43;17.10;99.90
10873;DHT22;34586;53.616;10.032;2023-03-23T14:03:25;14.00;99.90
10873;DHT22;34586;53.616;10.032;2023-03-23T14:11:01;10.10;99.90
10873;DHT22;34586;53.616;10.032;2023-03-23T14:13:46;9.70;99.90
10873;DHT22;34586;53.616;10.032;2023-03-23T14:18:56;9.50;99.90
10873;DHT22;34586;53.616;10.032;2023-03-23T14:21:32;9.60;99.90
10873;DHT22;34586;53.616;10.032;2023-03-23T14:24:03;9.80;99.90
10873;DHT22;34586;53.616;10.032;2023-03-23T14:26:33;9.90;99.90
10873;DHT22;34586;53.616;10.032;2023-03-23T14:29:00;10.10;99.90
10873;DHT22;34586;53.616;10.032;2023-03-23T14:31:27;10.20;99.90
10873;DHT22;34586;53.616;10.032;2023-03-23T14:33:55;10.50;99.90
10873;DHT22;34586;53.616;10.032;2023-03-23T14:36:23;10.70;99.90
10873;DHT22;34586;53.616;10.032;2023-03-23T14:39:14;10.90;99.90
10873;DHT22;34586;53.616;10.032;2023-03-23T14:41:41;11.10;99.90
10873;DHT22;34586;53.616;10.032;2023-03-23T14:44:13;11.10;99.90
10873;DHT22;34586;53.616;10.032;2023-03-23T14:46:42;11.20;99.90
10873;DHT22;34586;53.616;10.032;2023-03-23T14:49:13;11.20;99.90
10873;DHT22;34586;53.616;10.032;2023-03-23T14:51:53;11.20;99.90
10873;DHT22;34586;53.616;10.032;2023-03-23T14:54:25;11.40;99.90
10873;DHT22;34586;53.616;10.032;2023-03-23T14:56:51;11.40;99.90
10873;DHT22;34586;53.616;10.032;2023-03-23T14:59:17;11.50;99.90
10873;DHT22;34586;53.616;10.032;2023-03-23T15:01:44;11.70;99.90
10873;DHT22;34586;53.616;10.032;2023-03-23T15:04:15;11.70;99.90
10873;DHT22;34586;53.616;10.032;2023-03-23T15:06:44;11.70;99.90
10873;DHT22;34586;53.616;10.032;2023-03-23T15:09:14;11.90;99.90
10873;DHT22;34586;53.616;10.032;2023-03-23T15:11:41;12.00;99.90
10873;DHT22;34586;53.616;10.032;2023-03-23T15:14:21;12.00;99.90
10873;DHT22;34586;53.616;10.032;2023-03-23T15:16:50;11.90;99.90
10873;DHT22;34586;53.616;10.032;2023-03-23T15:19:32;11.90;99.90
10873;DHT22;34586;53.616;10.032;2023-03-23T15:22:12;11.90;99.90
10873;DHT22;34586;53.616;10.032;2023-03-23T15:24:40;11.80;99.90
10873;DHT22;34586;53.616;10.032;2023-03-23T15:29:31;11.80;99.90
10873;DHT22;34586;53.616;10.032;2023-03-23T15:31:57;11.80;99.90
10873;DHT22;34586;53.616;10.032;2023-03-23T15:34:34;11.80;99.90
10873;DHT22;34586;53.616;10.032;2023-03-23T15:37:13;11.70;99.90
10873;DHT22;34586;53.616;10.032;2023-03-23T15:39:42;11.70;99.90
10873;DHT22;34586;53.616;10.032;2023-03-23T15:42:22;11.70;99.90
10873;DHT22;34586;53.616;10.032;2023-03-23T15:47:35;11.60;99.90
10873;DHT22;34586;53.616;10.032;2023-03-23T15:50:14;11.60;99.90
10873;DHT22;34586;53.616;10.032;2023-03-23T15:52:41;11.50;99.90
10873;DHT22;34586;53.616;10.032;2023-03-23T15:55:37;11.50;99.90
10873;DHT22;34586;53.616;10.032;2023-03-23T15:58:11;11.40;99.90
10873;DHT22;34586;53.616;10.032;2023-03-23T16:00:38;11.40;99.90
10873;DHT22;34586;53.616;10.032;2023-03-23T16:03:11;11.50;99.90
10873;DHT22;34586;53.616;10.032;2023-03-23T16:05:37;11.40;99.90
10873;DHT22;34586;53.616;10.032;2023-03-23T16:08:03;11.50;99.90
10873;DHT22;34586;53.616;10.032;2023-03-23T16:10:29;11.40;99.90
10873;DHT22;34586;53.616;10.032;2023-03-23T16:12:55;11.40;99.90
10873;DHT22;34586;53.616;10.032;2023-03-23T16:15:21;11.40;99.90
10873;DHT22;34586;53.616;10.032;2023-03-23T16:17:47;11.30;99.90
10873;DHT22;34586;53.616;10.032;2023-03-23T16:20:18;11.30;99.90
10873;DHT22;34586;53.616;10.032;2023-03-23T16:22:44;11.30;99.90
10873;DHT22;34586;53.616;10.032;2023-03-23T16:25:10;11.20;99.90
10873;DHT22;34586;53.616;10.032;2023-03-23T16:27:36;11.20;99.90
10873;DHT22;34586;53.616;10.032;2023-03-23T16:30:15;11.00;99.90
10873;DHT22;34586;53.616;10.032;2023-03-23T16:32:41;10.90;99.90
10873;DHT22;34586;53.616;10.032;2023-03-23T16:35:08;11.00;99.90
10873;DHT22;34586;53.616;10.032;2023-03-23T16:37:33;11.00;99.90
10873;DHT22;34586;53.616;10.032;2023-03-23T16:40:00;10.90;99.90
10873;DHT22;34586;53.616;10.032;2023-03-23T16:42:26;10.80;99.90
10873;DHT22;34586;53.616;10.032;2023-03-23T16:44:51;10.80;99.90
10873;DHT22;34586;53.616;10.032;2023-03-23T16:47:19;10.70;99.90
10873;DHT22;34586;53.616;10.032;2023-03-23T16:49:48;10.70;99.90
10873;DHT22;34586;53.616;10.032;2023-03-23T16:52:13;10.80;99.90
10873;DHT22;34586;53.616;10.032;2023-03-23T16:54:39;10.80;99.90
10873;DHT22;34586;53.616;10.032;2023-03-23T16:57:04;10.80;99.90
10873;DHT22;34586;53.616;10.032;2023-03-23T16:59:31;10.80;99.90
10873;DHT22;34586;53.616;10.032;2023-03-23T17:01:56;10.80;99.90
10873;DHT22;34586;53.616;10.032;2023-03-23T17:04:28;10.70;99.90
10873;DHT22;34586;53.616;10.032;2023-03-23T17:06:53;10.70;99.90
10873;DHT22;34586;53.616;10.032;2023-03-23T17:09:19;10.60;99.90
10873;DHT22;34586;53.616;10.032;2023-03-23T17:11:45;10.50;99.90
10873;DHT22;34586;53.616;10.032;2023-03-23T17:14:10;10.50;99.90
10873;DHT22;34586;53.616;10.032;2023-03-23T17:16:36;10.50;99.90
10873;DHT22;34586;53.616;10.032;2023-03-23T17:19:02;10.50;99.90
10873;DHT22;34586;53.616;10.032;2023-03-23T17:21:28;10.50;99.90
10873;DHT22;34586;53.616;10.032;2023-03-23T17:23:54;10.60;99.90
10873;DHT22;34586;53.616;10.032;2023-03-23T17:26:19;10.50;99.90
10873;DHT22;34586;53.616;10.032;2023-03-23T17:28:45;10.50;99.90
10873;DHT22;34586;53.616;10.032;2023-03-23T17:31:11;10.40;99.90
10873;DHT22;34586;53.616;10.032;2023-03-23T17:33:36;10.40;99.90
10873;DHT22;34586;53.616;10.032;2023-03-23T17:36:02;10.30;99.90
10873;DHT22;34586;53.616;10.032;2023-03-23T17:38:27;10.30;99.90
10873;DHT22;34586;53.616;10.032;2023-03-23T17:41:00;10.40;99.90